Time;durP1;ratioP1;P1;durP2;ratioP2;P2;SDS_P1;SDS_P2;PMS_P1;PMS_P2;Temp;Humidity;BMP_temperature;BMP_pressure;BME280_temperature;BME280_humidity;BME280_pressure;Samples;Min_cycle;Max_cycle;Signal;HPM_P1;HPM_P2
2022/03/13 00:03:09;;;;;;;20.67;6.03;;;-2.80;54.00;;;-5.15;50.48;101405.28;10415133;27;96548;-77
2022/03/13 00:08:27;;;;;;;32.20;7.50;;;-2.90;54.60;;;-5.19;50.34;101398.47;10420868;27;96553;-76
2022/03/13 00:13:34;;;;;;;14.90;5.23;;;-2.90;53.70;;;-5.21;49.55;101400.25;10440103;27;96640;-76
2022/03/13 00:18:46;;;;;;;13.70;5.23;;;-2.90;52.90;;;-5.25;50.70;101398.63;10456331;27;96540;-77
2022/03/13 00:23:49;;;;;;;14.80;6.00;;;-3.00;56.10;;;-5.34;51.47;101393.66;10419946;28;96567;-76
2022/03/13 00:28:52;;;;;;;16.23;6.17;;;-3.10;56.40;;;-5.39;51.26;101398.13;10444631;27;96433;-76
2022/03/13 00:33:55;;;;;;;16.40;6.73;;;-3.10;55.60;;;-5.47;51.45;101403.47;10443174;27;97697;-76
2022/03/13 00:38:58;;;;;;;15.10;6.60;;;-3.20;56.10;;;-5.54;51.95;101408.81;10450900;27;96564;-76
2022/03/13 00:44:02;;;;;;;28.17;9.23;;;-3.20;56.90;;;-5.62;52.67;101397.81;10428910;27;96592;-76
2022/03/13 00:49:04;;;;;;;21.30;7.70;;;-3.30;58.10;;;-5.68;53.94;101391.03;10421631;27;96718;-76
2022/03/13 00:54:08;;;;;;;39.27;10.70;;;-3.40;58.70;;;-5.74;53.33;101393.78;10458628;27;96472;-78
2022/03/13 00:59:11;;;;;;;39.50;11.63;;;-3.50;57.70;;;-5.82;53.92;101391.31;10420161;27;96490;-78
2022/03/13 01:04:14;;;;;;;44.53;14.73;;;-3.50;59.00;;;-5.84;53.99;101385.34;10456541;27;96468;-78
2022/03/13 01:09:17;;;;;;;56.87;16.73;;;-3.60;58.60;;;-5.91;54.11;101386.41;10432447;27;96532;-77
2022/03/13 01:14:21;;;;;;;60.30;19.23;;;-3.60;58.80;;;-5.99;53.95;101378.81;10424916;27;96511;-78
2022/03/13 01:19:24;;;;;;;62.33;19.30;;;-3.70;58.50;;;-6.05;54.73;101383.28;10437899;27;97066;-77
2022/03/13 01:24:43;;;;;;;58.07;17.80;;;-3.80;58.70;;;-6.14;54.37;101379.16;10408599;27;96625;-78
2022/03/13 01:29:46;;;;;;;46.77;13.97;;;-3.80;59.00;;;-6.20;54.75;101372.38;10441986;27;96697;-78
2022/03/13 01:34:54;;;;;;;40.70;11.10;;;-3.90;59.20;;;-6.24;54.83;101360.41;10409989;27;96686;-78
2022/03/13 01:40:00;;;;;;;31.10;9.87;;;-3.90;59.10;;;-6.25;54.99;101357.81;10432149;27;96604;-78
2022/03/13 01:45:11;;;;;;;24.40;8.20;;;-4.00;58.70;;;-6.28;55.18;101355.31;10451000;27;96570;-77
2022/03/13 01:50:15;;;;;;;18.55;6.93;;;-4.00;59.00;;;-6.29;55.26;101345.88;10407381;27;96574;-78
2022/03/13 01:55:18;;;;;;;20.37;7.33;;;-4.00;59.70;;;-6.27;55.80;101350.09;10407570;27;96579;-77
2022/03/13 02:00:22;;;;;;;14.87;4.90;;;-4.00;60.00;;;-6.27;56.00;101344.09;10451560;27;97057;-77
2022/03/13 02:05:45;;;;;;;11.50;4.03;;;-4.00;59.40;;;-6.26;56.00;101343.19;10433150;27;96520;-77
2022/03/13 02:10:49;;;;;;;13.43;4.57;;;-4.00;57.40;;;-6.23;55.67;101348.31;10412916;27;96657;-78
2022/03/13 02:15:54;;;;;;;18.13;5.83;;;-4.00;57.50;;;-6.18;56.05;101349.03;10418592;27;96618;-77
2022/03/13 02:20:57;;;;;;;22.83;7.03;;;-4.00;57.00;;;-6.16;55.93;101351.63;10418216;27;96744;-77
2022/03/13 02:26:03;;;;;;;23.50;5.90;;;-4.00;58.20;;;-6.16;56.77;101352.47;10439728;27;96520;-78
2022/03/13 02:31:13;;;;;;;12.43;4.40;;;-4.00;61.30;;;-6.16;56.07;101359.38;10444931;27;96598;-77
2022/03/13 02:36:31;;;;;;;9.37;4.10;;;-4.00;60.30;;;-6.20;55.91;101359.44;10398915;28;96548;-77
2022/03/13 02:41:35;;;;;;;13.97;4.80;;;-4.00;60.10;;;-6.26;56.09;101349.22;10418549;27;96603;-77
2022/03/13 02:46:54;;;;;;;15.00;5.13;;;-4.00;60.20;;;-6.35;55.98;101349.44;10398909;27;96616;-77
2022/03/13 02:52:04;;;;;;;16.07;4.73;;;-4.10;59.80;;;-6.41;56.41;101340.94;10399549;27;96568;-77
2022/03/13 02:57:08;;;;;;;16.80;6.57;;;-4.10;60.10;;;-6.46;56.95;101335.88;10410763;28;97081;-77
2022/03/13 03:02:11;;;;;;;12.53;4.83;;;-4.20;61.70;;;-6.53;57.30;101331.72;10385192;27;97541;-77
2022/03/13 03:07:14;;;;;;;11.33;4.57;;;-4.20;61.80;;;-6.54;57.73;101329.97;10456394;27;97018;-77
2022/03/13 03:12:18;;;;;;;12.87;5.60;;;-4.30;59.60;;;-6.55;57.25;101325.69;10429757;27;96467;-77
2022/03/13 03:17:21;;;;;;;20.93;6.13;;;-4.30;59.90;;;-6.60;58.30;101327.53;10433251;27;97759;-77
2022/03/13 03:22:25;;;;;;;25.03;9.20;;;-4.30;62.60;;;-6.65;57.73;101321.63;10414667;27;96491;-77
2022/03/13 03:27:30;;;;;;;23.77;8.53;;;-4.40;61.90;;;-6.66;58.23;101325.91;10402482;27;96573;-77
2022/03/13 03:32:33;;;;;;;29.03;10.30;;;-4.40;62.90;;;-6.68;58.59;101313.91;10421596;27;96646;-77
2022/03/13 03:37:36;;;;;;;40.07;10.97;;;-4.40;62.80;;;-6.65;58.04;101306.13;10440503;27;96475;-77
2022/03/13 03:42:40;;;;;;;41.37;12.20;;;-4.40;60.00;;;-6.60;57.81;101297.34;10440383;27;96626;-77
2022/03/13 03:47:44;;;;;;;68.23;16.43;;;-4.40;59.50;;;-6.58;57.73;101292.16;10437776;27;97068;-77
2022/03/13 03:52:47;;;;;;;49.90;14.80;;;-4.40;62.50;;;-6.60;57.95;101292.19;10424930;27;98338;-78
2022/03/13 03:57:54;;;;;;;37.93;11.03;;;-4.40;62.90;;;-6.59;57.96;101280.97;10398574;27;96733;-78
2022/03/13 04:02:57;;;;;;;39.40;11.57;;;-4.40;62.90;;;-6.52;58.25;101285.13;10411935;27;98175;-77
2022/03/13 04:08:00;;;;;;;40.90;13.47;;;-4.40;61.80;;;-6.51;58.20;101285.97;10414787;27;96546;-77
2022/03/13 04:13:03;;;;;;;44.37;14.00;;;-4.30;63.10;;;-6.57;59.10;101293.88;10423412;27;96689;-77
2022/03/13 04:18:06;;;;;;;44.67;11.37;;;-4.40;64.20;;;-6.69;59.12;101292.38;10437438;27;97894;-77
2022/03/13 04:23:09;;;;;;;43.80;12.17;;;-4.40;63.70;;;-6.76;58.93;101290.81;10438702;27;96492;-77
2022/03/13 04:28:12;;;;;;;33.10;11.13;;;-4.50;63.70;;;-6.76;59.52;101288.22;10421946;27;96596;-76
2022/03/13 04:33:16;;;;;;;26.17;8.47;;;-4.50;62.00;;;-6.78;59.22;101298.63;10384575;27;96493;-77
2022/03/13 04:38:19;;;;;;;31.30;9.70;;;-4.60;63.00;;;-6.80;59.25;101289.16;10426915;27;96574;-76
2022/03/13 04:43:24;;;;;;;24.87;7.03;;;-4.60;64.20;;;-6.87;59.22;101298.78;10436200;27;96606;-77
2022/03/13 04:48:27;;;;;;;18.90;6.47;;;-4.60;62.30;;;-6.94;59.28;101304.13;10401951;27;96401;-76
2022/03/13 04:53:30;;;;;;;168.80;47.50;;;-4.70;62.70;;;-7.03;60.25;101300.81;10422829;27;96658;-76
2022/03/13 04:58:34;;;;;;;40.43;12.93;;;-4.80;63.30;;;-7.11;59.55;101294.94;10415868;27;96876;-77
2022/03/13 05:03:37;;;;;;;21.07;7.70;;;-4.80;64.10;;;-7.16;60.85;101296.75;10413672;28;96510;-77
2022/03/13 05:08:40;;;;;;;38.50;10.50;;;-4.90;64.20;;;-7.16;61.54;101293.34;10440107;27;96677;-77
2022/03/13 05:13:43;;;;;;;20.43;8.23;;;-4.90;62.10;;;-7.19;60.77;101290.81;10417653;27;96544;-77
2022/03/13 05:18:48;;;;;;;22.30;7.97;;;-4.90;65.80;;;-7.22;60.86;101291.72;10427927;27;96743;-77
2022/03/13 05:23:51;;;;;;;19.27;7.40;;;-4.90;66.40;;;-7.24;61.32;101297.81;10416816;28;96643;-77
2022/03/13 05:28:54;;;;;;;17.23;6.97;;;-4.90;66.70;;;-7.23;61.61;101300.34;10402574;27;96556;-77
2022/03/13 05:33:57;;;;;;;21.43;7.80;;;-5.00;66.50;;;-7.20;61.73;101302.00;10418996;27;96491;-76
2022/03/13 05:39:00;;;;;;;15.10;6.57;;;-4.90;67.10;;;-7.14;62.16;101310.50;10413794;27;96443;-77
2022/03/13 05:44:03;;;;;;;18.33;7.03;;;-4.90;69.10;;;-7.04;62.49;101313.75;10415766;27;96592;-77
2022/03/13 05:49:08;;;;;;;27.90;8.23;;;-4.90;67.70;;;-6.94;62.34;101322.19;10434097;27;96360;-76
2022/03/13 05:54:11;;;;;;;21.43;8.67;;;-4.80;68.30;;;-6.83;62.33;101321.13;10453430;27;98101;-77
2022/03/13 05:59:14;;;;;;;15.93;6.40;;;-4.70;68.20;;;-6.70;62.12;101315.69;10412207;27;96991;-79
2022/03/13 06:04:17;;;;;;;17.97;6.10;;;-4.60;68.50;;;-6.50;61.78;101319.56;10421278;27;96691;-80
2022/03/13 06:09:19;;;;;;;15.17;6.80;;;-4.40;65.80;;;-6.25;61.34;101314.69;10439988;27;96565;-78
2022/03/13 06:14:23;;;;;;;20.40;7.67;;;-4.20;67.50;;;-5.89;61.29;101319.88;10420830;27;96561;-79
2022/03/13 06:19:26;;;;;;;14.70;6.07;;;-4.00;64.80;;;-5.48;58.93;101310.25;10422640;27;98234;-78
2022/03/13 06:24:32;;;;;;;16.07;6.57;;;-3.60;64.10;;;-5.19;58.00;101305.16;10414775;27;96709;-77
2022/03/13 06:29:35;;;;;;;17.87;7.57;;;-3.30;63.40;;;-4.90;58.38;101316.50;10421702;27;96508;-77
2022/03/13 06:34:38;;;;;;;19.77;7.93;;;-3.10;63.80;;;-4.61;58.19;101319.13;10419371;27;96574;-78
2022/03/13 06:39:41;;;;;;;18.77;8.50;;;-2.80;63.70;;;-4.28;57.31;101324.19;10429829;27;97456;-77
2022/03/13 06:44:44;;;;;;;22.40;9.73;;;-2.50;62.70;;;-4.03;56.26;101326.88;10413942;27;96579;-78
2022/03/13 06:49:47;;;;;;;19.63;8.83;;;-2.20;62.70;;;-3.76;55.34;101330.38;10423819;27;97018;-77
2022/03/13 06:54:52;;;;;;;19.33;8.17;;;-2.00;61.20;;;-3.47;54.49;101326.00;10430028;27;97906;-76
2022/03/13 07:00:00;;;;;;;20.50;8.77;;;-1.70;61.00;;;-3.20;54.40;101327.63;10421455;27;96637;-78
2022/03/13 07:05:09;;;;;;;21.13;9.67;;;-1.40;61.00;;;-2.90;54.55;101328.31;10431683;27;96570;-77
2022/03/13 07:10:12;;;;;;;16.70;7.07;;;-1.20;61.40;;;-2.60;53.98;101339.38;10448723;27;96902;-77
2022/03/13 07:15:16;;;;;;;18.03;8.00;;;-0.90;60.30;;;-2.34;53.19;101348.84;10414090;27;96655;-77
2022/03/13 07:20:20;;;;;;;13.87;6.40;;;-0.60;59.90;;;-2.07;51.68;101339.09;10397541;27;96610;-77
2022/03/13 07:25:23;;;;;;;18.87;7.70;;;-0.30;58.60;;;-1.88;49.32;101334.00;10419691;27;96551;-78
2022/03/13 07:30:26;;;;;;;20.33;8.80;;;-0.10;57.40;;;-1.65;48.35;101331.34;10424612;27;96755;-77
2022/03/13 07:35:29;;;;;;;23.00;9.07;;;0.10;56.90;;;-1.33;47.46;101323.09;10437552;27;98336;-78
2022/03/13 07:40:32;;;;;;;14.53;7.87;;;0.40;56.10;;;-0.97;46.64;101320.66;10419172;27;96612;-77
2022/03/13 07:45:35;;;;;;;14.33;7.53;;;0.70;55.00;;;-0.61;45.12;101326.03;10435765;27;98106;-77
2022/03/13 07:50:39;;;;;;;15.47;7.17;;;1.10;54.40;;;-0.23;44.72;101329.53;10417151;27;96599;-77
2022/03/13 07:55:42;;;;;;;22.47;10.10;;;1.40;53.90;;;0.15;43.77;101325.09;10437006;27;98407;-76
2022/03/13 08:00:45;;;;;;;15.03;7.83;;;1.80;53.40;;;0.51;42.42;101330.28;10456098;27;96650;-77
2022/03/13 08:05:48;;;;;;;21.57;9.47;;;2.20;52.50;;;1.08;41.56;101319.56;10439587;27;96485;-78
2022/03/13 08:10:52;;;;;;;16.23;7.63;;;2.50;52.20;;;2.28;41.16;101321.75;10446391;27;96444;-78
2022/03/13 08:15:54;;;;;;;14.00;9.37;;;2.90;52.20;;;2.81;39.40;101316.00;10444015;27;96421;-77
2022/03/13 08:20:57;;;;;;;18.47;9.97;;;3.40;51.90;;;3.60;38.84;101312.97;10453479;27;96507;-78
2022/03/13 08:26:00;;;;;;;15.53;7.73;;;4.20;51.60;;;4.27;37.86;101307.81;10421771;27;96559;-76
2022/03/13 08:31:04;;;;;;;16.20;8.10;;;4.80;50.50;;;5.16;35.71;101288.63;10419631;27;96668;-77
2022/03/13 08:36:07;;;;;;;16.50;8.53;;;5.40;49.20;;;5.94;34.10;101289.25;10403178;28;96487;-77
2022/03/13 08:41:11;;;;;;;16.33;8.67;;;6.10;48.20;;;6.70;33.02;101278.28;10427044;27;96588;-77
2022/03/13 08:46:14;;;;;;;14.27;7.63;;;6.60;48.00;;;7.17;31.34;101273.78;10452036;27;96550;-77
2022/03/13 08:51:19;;;;;;;14.77;7.87;;;7.20;46.80;;;7.24;29.21;101269.69;10402732;27;96355;-76
2022/03/13 08:56:23;;;;;;;13.77;6.77;;;7.70;45.60;;;7.53;27.95;101274.47;10427406;27;96440;-77
2022/03/13 09:01:26;;;;;;;10.27;6.03;;;8.20;44.30;;;7.91;27.49;101270.56;10408770;27;96619;-77
2022/03/13 09:06:29;;;;;;;10.10;6.17;;;8.60;42.40;;;8.55;26.31;101263.47;10443761;27;96394;-77
2022/03/13 09:11:34;;;;;;;12.93;5.90;;;9.20;41.60;;;9.27;24.69;101248.53;10427100;27;96527;-77
2022/03/13 09:16:38;;;;;;;11.37;5.70;;;9.70;40.10;;;10.01;23.19;101232.19;10437878;27;96523;-77
2022/03/13 09:21:42;;;;;;;12.23;7.17;;;10.20;39.30;;;10.53;23.00;101225.63;10418149;27;96486;-77
2022/03/13 09:26:45;;;;;;;10.60;6.47;;;10.70;38.90;;;11.28;21.81;101217.72;10414136;27;96935;-77
2022/03/13 09:31:48;;;;;;;9.20;5.70;;;11.30;38.70;;;11.61;20.70;101203.78;10442406;27;96596;-77
2022/03/13 09:36:51;;;;;;;9.10;4.80;;;11.70;36.80;;;11.72;20.36;101197.41;10444029;27;97897;-77
2022/03/13 09:41:54;;;;;;;8.70;5.20;;;12.00;35.60;;;11.39;19.88;101188.22;10438854;27;96783;-77
2022/03/13 09:46:57;;;;;;;12.10;6.40;;;12.00;34.00;;;10.94;19.99;101183.69;10428892;27;97099;-76
2022/03/13 09:52:01;;;;;;;10.87;5.40;;;11.80;33.00;;;10.66;20.05;101180.97;10417294;27;96531;-77
2022/03/13 09:57:05;;;;;;;11.67;5.90;;;11.70;32.40;;;10.58;19.55;101188.00;10392560;27;96642;-77
2022/03/13 10:02:08;;;;;;;13.10;7.43;;;11.90;32.60;;;10.98;20.39;101177.09;10417789;27;96574;-77
2022/03/13 10:07:13;;;;;;;14.60;6.57;;;12.30;32.30;;;11.37;18.50;101175.06;10425021;27;96521;-77
2022/03/13 10:12:17;;;;;;;22.07;9.70;;;12.60;31.20;;;11.92;18.51;101182.97;10419329;27;96472;-77
2022/03/13 10:17:29;;;;;;;12.73;6.90;;;13.00;31.10;;;11.93;18.66;101168.66;10423009;27;96594;-79
2022/03/13 10:22:32;;;;;;;11.35;5.93;;;13.20;30.50;;;12.43;18.25;101176.06;10442072;27;96606;-79
2022/03/13 10:27:35;;;;;;;10.15;5.97;;;13.50;30.70;;;13.03;18.11;101168.06;10399850;28;96556;-78
2022/03/13 10:32:38;;;;;;;11.35;6.97;;;14.00;30.90;;;13.81;17.60;101164.31;10436730;27;96707;-77
2022/03/13 10:37:43;;;;;;;11.57;7.20;;;14.60;30.30;;;14.24;18.24;101156.97;10429281;27;96750;-78
2022/03/13 10:42:46;;;;;;;10.98;7.35;;;15.00;30.50;;;14.68;17.89;101154.75;10419706;27;97489;-77
2022/03/13 10:47:50;;;;;;;11.10;7.93;;;15.50;30.00;;;14.95;17.43;101150.81;10405610;27;96609;-77
2022/03/13 10:52:53;;;;;;;10.38;6.97;;;15.80;29.90;;;15.35;16.82;101154.31;10415734;27;96512;-77
2022/03/13 10:57:58;;;;;;;11.25;7.68;;;16.10;29.60;;;15.45;15.76;101137.00;10447698;27;96875;-77
2022/03/13 11:03:12;;;;;;;10.98;6.95;;;16.40;29.20;;;15.69;15.12;101141.41;10444573;27;96777;-77
2022/03/13 11:08:15;;;;;;;11.40;6.68;;;16.60;27.90;;;16.08;15.39;101129.72;10400431;28;96542;-77
2022/03/13 11:13:21;;;;;;;8.48;6.38;;;17.00;28.60;;;16.48;14.98;101130.31;10444148;27;96840;-77
2022/03/13 11:18:35;;;;;;;8.00;5.72;;;17.40;28.40;;;16.71;14.54;101125.75;10409489;27;96808;-77
2022/03/13 11:23:38;;;;;;;8.30;6.13;;;17.70;27.80;;;16.70;14.02;101116.03;10398050;27;96746;-77
2022/03/13 11:28:46;;;;;;;8.95;6.22;;;17.80;26.90;;;16.72;13.49;101113.16;10416010;27;96694;-77
2022/03/13 11:34:16;;;;;;;9.30;5.75;;;17.80;27.60;;;16.98;13.50;101115.38;10412069;27;98167;-77
2022/03/13 11:39:28;;;;;;;10.15;6.03;;;18.00;26.00;;;16.87;13.66;101107.78;10422123;27;97035;-77
2022/03/13 11:44:33;;;;;;;20.08;10.55;;;18.10;26.30;;;16.87;13.55;101102.41;10433733;27;97093;-77
2022/03/13 11:49:38;;;;;;;9.35;6.03;;;18.20;26.60;;;17.46;14.30;101096.91;10421319;27;98260;-77
2022/03/13 11:54:53;;;;;;;9.50;6.20;;;18.50;27.00;;;17.70;13.14;101083.09;10438567;27;96590;-77
2022/03/13 12:00:14;;;;;;;9.25;5.97;;;18.90;25.80;;;17.76;12.66;101079.66;10437807;27;96784;-77
2022/03/13 12:05:25;;;;;;;24.02;12.15;;;18.90;25.90;;;17.50;12.91;101068.59;10453885;27;96515;-77
2022/03/13 12:10:35;;;;;;;13.05;7.75;;;18.90;25.80;;;17.89;13.33;101060.94;10450657;27;96344;-77
2022/03/13 12:15:42;;;;;;;9.90;6.17;;;19.10;25.90;;;17.86;12.88;101047.88;10394590;27;96504;-77
2022/03/13 12:20:46;;;;;;;8.18;5.45;;;19.20;25.60;;;17.72;12.85;101047.97;10405248;28;97482;-77
2022/03/13 12:25:53;;;;;;;8.32;5.97;;;19.10;25.20;;;17.39;12.76;101035.00;10396902;28;96716;-77
2022/03/13 12:31:01;;;;;;;7.55;5.32;;;18.90;25.20;;;17.10;12.26;101041.34;10439998;27;96742;-77
2022/03/13 12:36:05;;;;;;;11.80;7.65;;;18.60;25.30;;;16.50;13.26;101042.44;10444651;27;96690;-77
2022/03/13 12:41:09;;;;;;;9.02;6.53;;;18.10;25.10;;;15.37;13.28;101032.63;10443938;27;96461;-76
2022/03/13 12:46:13;;;;;;;17.83;9.75;;;17.20;25.00;;;14.15;14.07;101036.69;10417317;27;96776;-76
2022/03/13 12:51:34;;;;;;;8.38;5.40;;;16.20;25.20;;;13.20;14.82;101037.38;10468729;27;96554;-76
2022/03/13 12:56:51;;;;;;;8.65;5.05;;;15.40;25.50;;;12.61;14.99;101052.53;10461368;27;96565;-76
2022/03/13 13:02:18;;;;;;;8.50;5.20;;;14.90;25.40;;;12.54;15.50;101047.84;10425915;27;98283;-76
2022/03/13 13:07:26;;;;;;;8.38;5.75;;;14.80;25.40;;;12.51;15.60;101053.47;10409289;27;96863;-77
2022/03/13 13:12:32;;;;;;;12.95;6.25;;;14.80;26.00;;;12.37;15.08;101056.75;10413909;27;96644;-76
2022/03/13 13:17:35;;;;;;;9.50;5.68;;;14.70;25.60;;;12.22;15.36;101061.81;10415843;27;97233;-77
2022/03/13 13:22:40;;;;;;;15.95;7.75;;;14.50;25.70;;;12.20;15.45;101062.97;10435869;27;96671;-76
2022/03/13 13:27:54;;;;;;;12.27;6.35;;;14.50;25.80;;;12.26;15.24;101052.53;10408752;27;96860;-77
2022/03/13 13:33:00;;;;;;;11.32;6.07;;;14.60;25.80;;;12.26;15.06;101060.50;10402708;27;96524;-76
2022/03/13 13:38:27;;;;;;;25.05;11.40;;;14.60;25.70;;;12.08;15.21;101059.75;10431010;27;97411;-77
2022/03/13 13:43:32;;;;;;;12.48;5.70;;;14.40;25.40;;;12.10;15.08;101065.72;10437891;27;97964;-76
2022/03/13 13:48:38;;;;;;;10.20;5.93;;;14.40;25.60;;;12.19;15.16;101063.97;10435881;27;96668;-76
2022/03/13 13:54:03;;;;;;;29.10;10.27;;;14.30;25.40;;;12.22;14.80;101064.47;10450520;27;96744;-76
2022/03/13 13:59:26;;;;;;;12.48;7.55;;;14.40;25.40;;;12.35;14.42;101057.88;10427912;27;97092;-76
2022/03/13 14:04:34;;;;;;;6.82;4.43;;;14.50;24.90;;;12.27;14.37;101064.84;10445115;27;96482;-76
2022/03/13 14:09:39;;;;;;;5.80;3.50;;;14.40;25.10;;;12.14;14.62;101066.28;10424031;27;96613;-76
2022/03/13 14:14:41;;;;;;;7.30;3.57;;;14.40;25.20;;;12.19;14.79;101072.81;10407453;27;96606;-75
2022/03/13 14:19:44;;;;;;;16.63;6.53;;;14.30;25.10;;;12.41;14.86;101066.06;10452344;27;96758;-77
2022/03/13 14:24:47;;;;;;;6.35;4.03;;;14.60;25.40;;;12.93;14.69;101065.97;10447684;27;96547;-75
2022/03/13 14:29:50;;;;;;;7.45;3.90;;;15.10;25.30;;;13.08;14.31;101063.53;10401134;27;96663;-77
2022/03/13 14:34:55;;;;;;;7.95;4.00;;;15.30;25.00;;;13.13;14.28;101064.72;10439488;27;97094;-77
2022/03/13 14:39:58;;;;;;;32.85;8.52;;;15.40;25.10;;;13.24;14.49;101060.06;10449195;27;96420;-77
2022/03/13 14:45:04;;;;;;;7.25;4.53;;;15.50;25.20;;;13.17;14.58;101053.69;10409133;27;96667;-77
2022/03/13 14:50:07;;;;;;;11.32;5.53;;;15.50;25.20;;;12.83;15.12;101062.59;10431387;27;96612;-76
2022/03/13 14:55:14;;;;;;;10.30;4.63;;;15.20;25.30;;;12.50;14.83;101061.66;10412308;27;96538;-78
2022/03/13 15:00:18;;;;;;;7.32;5.15;;;14.90;25.40;;;12.09;15.62;101057.91;10441072;27;98377;-77
2022/03/13 15:05:21;;;;;;;12.10;7.00;;;14.40;25.60;;;11.82;16.18;101061.56;10429624;27;97429;-77
2022/03/13 15:10:25;;;;;;;9.97;6.20;;;14.20;25.90;;;11.63;15.94;101054.53;10445660;27;97426;-77
2022/03/13 15:15:29;;;;;;;11.13;5.83;;;14.00;25.90;;;11.40;16.12;101055.03;10437072;27;96581;-75
2022/03/13 15:20:32;;;;;;;17.47;11.10;;;13.70;26.00;;;11.16;16.35;101060.94;10418016;27;96630;-77
2022/03/13 15:25:36;;;;;;;8.37;5.73;;;13.40;26.10;;;10.87;16.54;101062.94;10424779;27;97487;-76
2022/03/13 15:30:39;;;;;;;8.63;5.17;;;13.00;26.20;;;10.51;16.91;101064.66;10441648;27;96827;-76
2022/03/13 15:35:42;;;;;;;10.83;5.57;;;12.50;26.50;;;10.16;17.15;101074.94;10421016;27;96563;-78
2022/03/13 15:40:45;;;;;;;11.00;4.43;;;12.00;26.60;;;9.84;17.52;101075.28;10410339;27;96566;-77
2022/03/13 15:45:51;;;;;;;8.77;4.97;;;11.60;26.90;;;9.59;17.60;101073.19;10427691;27;96538;-78
2022/03/13 15:50:54;;;;;;;11.53;5.90;;;11.30;27.00;;;9.31;18.15;101075.72;10395249;28;96533;-77
2022/03/13 15:55:57;;;;;;;9.50;5.20;;;11.00;27.40;;;9.05;18.14;101079.84;10417709;27;96609;-77
2022/03/13 16:01:00;;;;;;;7.67;4.23;;;10.70;27.40;;;8.79;18.30;101088.28;10425156;27;97841;-77
2022/03/13 16:06:04;;;;;;;9.73;5.30;;;10.50;27.50;;;8.52;19.04;101082.78;10447249;27;96790;-77
2022/03/13 16:11:07;;;;;;;14.37;7.47;;;10.20;27.90;;;8.17;19.69;101091.88;10413408;27;96661;-77
2022/03/13 16:16:10;;;;;;;19.10;9.20;;;9.90;28.30;;;7.84;20.19;101100.03;10408406;27;97730;-77
2022/03/13 16:21:13;;;;;;;21.47;10.67;;;9.60;28.50;;;7.48;20.62;101095.00;10425735;27;96768;-77
2022/03/13 16:26:16;;;;;;;13.90;6.40;;;9.30;28.80;;;7.13;21.08;101104.94;10457099;27;96520;-76
2022/03/13 16:31:19;;;;;;;13.30;6.40;;;9.00;28.90;;;6.74;21.57;101106.34;10433250;27;96571;-76
2022/03/13 16:36:22;;;;;;;43.33;15.87;;;8.70;29.30;;;6.34;22.29;101104.16;10469092;27;96496;-76
2022/03/13 16:41:25;;;;;;;26.50;10.27;;;8.30;29.80;;;5.94;23.32;101103.72;10429204;27;97716;-76
2022/03/13 16:46:28;;;;;;;22.73;8.87;;;8.00;30.20;;;5.52;23.72;101119.97;10411827;27;98077;-76
2022/03/13 16:51:31;;;;;;;47.57;20.50;;;7.60;30.80;;;5.16;24.05;101133.16;10454028;27;98324;-76
2022/03/13 16:56:34;;;;;;;33.00;13.77;;;7.20;30.40;;;4.79;24.49;101141.06;10420757;27;97511;-77
2022/03/13 17:01:37;;;;;;;57.67;23.13;;;6.80;31.20;;;4.52;24.54;101139.41;10412765;27;96638;-76
2022/03/13 17:06:42;;;;;;;31.87;14.23;;;6.50;30.30;;;4.26;24.67;101140.38;10451907;27;96959;-76
2022/03/13 17:11:46;;;;;;;30.77;15.50;;;6.30;30.70;;;4.04;25.14;101146.22;10428774;27;96684;-75
2022/03/13 17:16:49;;;;;;;27.07;15.07;;;6.00;30.70;;;3.90;25.12;101162.94;10401919;27;97054;-77
2022/03/13 17:21:53;;;;;;;30.83;14.83;;;5.80;30.90;;;3.76;25.56;101158.56;10427445;27;97510;-78
2022/03/13 17:26:57;;;;;;;57.30;22.23;;;5.70;31.20;;;3.64;25.62;101179.56;10418967;27;96415;-78
2022/03/13 17:32:00;;;;;;;39.73;15.77;;;5.50;31.20;;;3.46;25.80;101182.41;10422135;27;98253;-77
2022/03/13 17:37:05;;;;;;;46.40;19.27;;;5.40;32.40;;;3.35;26.15;101178.78;10421621;27;96477;-77
2022/03/13 17:42:09;;;;;;;76.53;26.73;;;5.30;31.80;;;3.24;26.11;101182.13;10406339;27;96880;-77
2022/03/13 17:47:12;;;;;;;83.83;30.57;;;5.10;31.80;;;3.16;26.23;101185.19;10415151;27;96633;-76
2022/03/13 17:52:16;;;;;;;63.73;25.57;;;5.00;31.90;;;3.09;26.60;101188.31;10418504;27;97127;-77
2022/03/13 17:57:19;;;;;;;60.30;24.60;;;5.00;32.30;;;3.02;26.46;101194.91;10405133;27;97663;-76
2022/03/13 18:02:21;;;;;;;69.60;26.53;;;4.90;32.20;;;2.95;27.01;101208.41;10436257;27;96797;-77
2022/03/13 18:07:25;;;;;;;62.83;23.30;;;4.80;32.40;;;2.86;26.97;101206.31;10428866;27;96644;-77
2022/03/13 18:12:27;;;;;;;52.40;21.70;;;4.70;33.10;;;2.77;27.36;101209.53;10422736;27;96632;-77
2022/03/13 18:17:30;;;;;;;65.23;26.50;;;4.70;34.10;;;2.63;27.42;101218.22;10419352;27;96504;-78
2022/03/13 18:22:33;;;;;;;30.20;12.03;;;4.60;34.10;;;2.40;28.78;101221.38;10425238;27;96574;-77
2022/03/13 18:27:36;;;;;;;19.00;8.50;;;4.40;35.90;;;2.09;30.39;101238.03;10424753;27;97483;-77
2022/03/13 18:32:55;;;;;;;17.67;6.80;;;4.10;36.80;;;1.77;30.56;101242.50;10400536;27;96682;-77
2022/03/13 18:37:57;;;;;;;16.23;6.70;;;3.80;36.60;;;1.44;31.67;101240.81;10419860;27;96490;-78
2022/03/13 18:43:02;;;;;;;53.27;18.73;;;3.50;37.50;;;1.17;32.88;101248.38;10423612;27;96465;-78
2022/03/13 18:48:05;;;;;;;21.83;9.33;;;3.30;38.90;;;0.96;33.03;101249.50;10438219;27;96963;-77
2022/03/13 18:53:08;;;;;;;16.23;8.73;;;3.10;39.00;;;0.77;33.90;101249.63;10423220;27;96555;-77
2022/03/13 18:58:12;;;;;;;16.37;8.00;;;2.80;40.20;;;0.58;34.03;101257.59;10436065;27;96896;-77
2022/03/13 19:03:15;;;;;;;31.60;11.67;;;2.60;39.90;;;0.40;34.32;101258.50;10414448;27;97903;-77
2022/03/13 19:08:20;;;;;;;46.53;20.57;;;2.50;40.00;;;0.22;34.86;101278.56;10436222;27;97126;-77
2022/03/13 19:13:23;;;;;;;27.63;11.57;;;2.30;40.80;;;0.10;35.49;101284.41;10418436;27;96946;-78
2022/03/13 19:18:26;;;;;;;28.93;11.93;;;2.20;41.50;;;-0.06;35.91;101292.13;10429424;27;96595;-76
2022/03/13 19:23:30;;;;;;;40.13;15.60;;;2.00;41.00;;;-0.23;36.56;101286.88;10427819;27;96570;-77
2022/03/13 19:28:35;;;;;;;40.93;15.27;;;1.90;42.10;;;-0.36;37.08;101292.69;10423251;27;96952;-76
2022/03/13 19:33:37;;;;;;;31.00;12.73;;;1.70;42.60;;;-0.47;37.17;101292.31;10418172;27;96638;-76
2022/03/13 19:38:40;;;;;;;32.40;14.50;;;1.60;42.50;;;-0.52;37.22;101299.50;10414064;28;96584;-76
2022/03/13 19:43:43;;;;;;;34.50;14.33;;;1.50;42.90;;;-0.58;37.07;101312.84;10414446;27;96861;-76
2022/03/13 19:48:47;;;;;;;55.73;21.80;;;1.50;42.80;;;-0.62;37.57;101312.13;10444850;27;98786;-76
2022/03/13 19:53:52;;;;;;;30.13;12.77;;;1.40;43.70;;;-0.69;37.79;101307.25;10436451;27;97325;-77
2022/03/13 19:58:54;;;;;;;44.17;18.43;;;1.40;43.50;;;-0.78;38.14;101305.03;10424546;27;96736;-77
2022/03/13 20:04:00;;;;;;;59.80;20.40;;;1.30;43.60;;;-0.89;38.80;101316.84;10413792;27;96895;-77
2022/03/13 20:09:03;;;;;;;24.03;12.00;;;1.20;43.40;;;-1.02;38.50;101323.50;10460278;27;96535;-77
2022/03/13 20:14:06;;;;;;;37.57;15.00;;;1.10;43.90;;;-1.10;38.84;101330.78;10449610;27;96866;-79
2022/03/13 20:19:09;;;;;;;34.03;15.40;;;1.00;44.10;;;-1.20;39.94;101334.69;10430975;27;96707;-77
2022/03/13 20:24:18;;;;;;;33.53;13.47;;;0.90;44.70;;;-1.29;40.00;101337.72;10404057;28;96563;-77
2022/03/13 20:29:25;;;;;;;19.40;9.30;;;0.80;45.00;;;-1.39;39.88;101345.91;10405544;27;96492;-77
2022/03/13 20:34:30;;;;;;;19.77;8.13;;;0.70;44.50;;;-1.47;39.86;101347.16;10436751;27;98340;-78
2022/03/13 20:39:33;;;;;;;17.03;7.17;;;0.60;44.70;;;-1.57;40.16;101348.41;10419750;28;96467;-78
2022/03/13 20:44:36;;;;;;;13.90;7.13;;;0.50;45.20;;;-1.66;40.70;101354.88;10433079;27;96605;-78
2022/03/13 20:49:42;;;;;;;17.00;7.83;;;0.40;45.10;;;-1.74;40.82;101359.50;10463147;27;96952;-77